LOWSLQSA

Guest
Details From LOWS - Salzburg Maxglan
To LQSA - Sarajevo
Flight Number -
Tags decoded
Created
Modified
Stats Distance 334 nm / 619 km
Max Altitude 0 ft / 0 m
Waypoints 5
Social Downloads 0
Likes 0
Share VATSIM

Download

Looking for another format? Having issues loading an existing format? Contact us
Advertisement - Login to hide

Notes

Requested: LOWS DOL KOMAR DONJI LQSA

Route

LOWS DOL KOMAR DONJI LQSA

ID Type Via Altitude Latitude Longitude Leg Dist Tot Dist Heading (true) Name
O LOWS APT - 0 ft / 0 m 47.79333˚ 13.00433˚ - 0 nm - Salzburg Maxglan
DOL VOR - 0 ft / 0 m 46.08414˚ 14.77857˚ 125 nm 125 nm 144° / 145° DOLSKO VOR-DME
KOMAR FIX - 0 ft / 0 m 44.95806˚ 16.80417˚ 108 nm 234 nm 128° / 129° -
DONJI FIX - 0 ft / 0 m 44.14769˚ 17.40664˚ 55 nm 289 nm 152° / 152° -
O LQSA APT - 0 ft / 0 m 43.82460˚ 18.33150˚ 44 nm 334 nm 116° / 116° Sarajevo

Altitude Profile

Advertisement - Login to hide

Weather


0- 5 10 15 20 25 30 35+ Temperature / ° C

Clouds and Precipitation
Forecast for 2017-12-16 06:00 UTC. Updated 39 minutes ago

Ground ~20,000 ft ~40,000 ft Winds

LOWS

Details ICAO LOWS (SZG)
Name Salzburg Maxglan
Region Austria
Timezone Europe/Vienna (UTC+1.0)
Stats Elevation 1,411 ft / 430 m (AMSL)
Location 47.793333° 13.004333°
Runways 1
Magnetic Variation 3.428° E

METAR

LOWS 160120Z AUTO 34005KT 300V010 9999 FEW012 BKN070 00/M00 Q1002

Decode

TAF

TAF LOWS 152315Z 1600/1624 15005KT 9999 FEW030 BKN050 TX01/1618Z TNM00/1623Z BECMG 1606/1608 28006KT SCT015 BKN035 TEMPO 1606/1624 4500 -SN FEW005 BKN015

Decode

Departure Runways

ID Width Length Bearing (true) Bearing (mag) Surface Threshold Offset Overrun Length
16 148 ft / 45 m 9,024 ft / 2,751 m 157.08° 153.65° Concrete 656 ft / 200 m 0 ft / 0 m
34 148 ft / 45 m 9,024 ft / 2,751 m 337.09° 333.66° Concrete 787 ft / 240 m 0 ft / 0 m

LQSA

Details ICAO LQSA (SJJ)
Name Sarajevo
Region Bosnia and Herzegovinia
Timezone Europe/Sarajevo (UTC+1.0)
Stats Elevation 1,708 ft / 521 m (AMSL)
Location 43.824597° 18.331500°
Runways 1
Magnetic Variation 4.223° E

METAR

LQSA 160100Z VRB02KT 8000 -RA SCT015 OVC035 07/07 Q0997 RERA

Decode

TAF

Not found

Destination Runways

ID Width Length Bearing (true) Bearing (mag) Surface Threshold Offset Overrun Length
12 150 ft / 46 m 8,519 ft / 2,597 m 117.41° 113.19° Asphalt 333 ft / 102 m 0 ft / 0 m
30 150 ft / 46 m 8,519 ft / 2,597 m 297.43° 293.21° Asphalt 666 ft / 203 m 0 ft / 0 m

Approach Navaids

Runway Type Ident Frequency Range Bearing (true) Bearing (mag) Slope Elevation
12 Localiser BHS 110.70 MHz 25 nm / 46 km 117.00° 112.78° - 1,709 ft / 521 m (AMSL)
12 Glidescope BHS 110.70 MHz 25 nm / 46 km 117.00° 112.78° 3.20° 1,705 ft / 520 m (AMSL)
12 DME BHS 110.70 MHz 25 nm / 46 km - - - 1,705 ft / 520 m (AMSL)

Popular Alternatives